Terminal Aerodrome Forecast
Issued by NWS

Home | Current Version | Previous Version | Graphics & Text | Print | Product List | Glossary On
Versions: 1 2 3 4 5 6 7 8 9 10 11 12 13 14 15 16 17 18
407
FTUS43 KICT 290520
TAFSLN
TAF
KSLN 290520Z 2906/3006 04015G23KT 4SM -TSRA OVC016CB
      TEMPO 2906/2910 2SM TSRA OVC006CB
     FM291000 04020G29KT 5SM -TSRA OVC012CB
      TEMPO 2910/2913 2SM TSRA OVC006CB
     FM291600 05015G23KT 5SM -SHRA BR OVC015
     FM300000 02015G24KT 5SM -SHRA BR OVC015=

USA.gov is the U.S. government's official web portal to all federal, state and local government web resources and services.